Time,TemperatureF,DewpointF,PressureIn,WindDirection,WindDirectionDegrees,WindSpeedMPH,WindSpeedGustMPH,Humidity,HourlyPrecipIn,Conditions,Clouds,dailyrainin,SolarRadiationWatts/m^2,SoftwareType,DateUTC
2013-01-03 00:17:00,21.7,7.0,30.03,NNW,339,14.0,14.0,54,0.00,,,0.00,0,weatherlink.com 1.10,2013-01-03 05:17:00,
2013-01-03 00:32:00,21.3,9.0,30.02,West,269,1.0,10.0,59,0.00,,,0.00,0,weatherlink.com 1.10,2013-01-03 05:32:00,
2013-01-03 00:47:00,21.0,9.0,30.03,West,271,0.0,14.0,61,0.00,,,0.00,0,weatherlink.com 1.10,2013-01-03 05:47:00,
2013-01-03 01:02:00,20.7,11.0,30.04,NNE,12,2.0,8.0,65,0.00,,,0.00,0,weatherlink.com 1.10,2013-01-03 06:02:00,
2013-01-03 01:17:00,20.3,10.0,30.03,NNW,339,3.0,8.0,65,0.00,,,0.00,0,weatherlink.com 1.10,2013-01-03 06:17:00,
2013-01-03 01:32:00,19.6,9.0,30.05,WNW,286,0.0,10.0,64,0.00,,,0.00,0,weatherlink.com 1.10,2013-01-03 06:32:00,
2013-01-03 01:47:00,19.3,10.0,30.05,NNW,347,3.0,12.0,66,0.00,,,0.00,0,weatherlink.com 1.10,2013-01-03 06:47:00,
2013-01-03 02:02:00,18.8,9.0,30.06,WNW,293,2.0,14.0,67,0.00,,,0.00,0,weatherlink.com 1.10,2013-01-03 07:02:00,
2013-01-03 02:17:00,18.1,8.0,30.07,NW,308,2.0,12.0,64,0.00,,,0.00,0,weatherlink.com 1.10,2013-01-03 07:17:00,
2013-01-03 02:32:00,17.7,9.0,30.06,NW,311,9.0,9.0,68,0.00,,,0.00,0,weatherlink.com 1.10,2013-01-03 07:32:00,
2013-01-03 02:47:00,17.5,9.0,30.05,NNW,347,9.0,11.0,70,0.00,,,0.00,0,weatherlink.com 1.10,2013-01-03 07:47:00,
2013-01-03 03:02:00,17.1,9.0,30.05,NNW,342,5.0,13.0,69,0.00,,,0.00,0,weatherlink.com 1.10,2013-01-03 08:02:00,
2013-01-03 03:17:00,16.8,8.0,30.05,WNW,289,2.0,9.0,69,0.00,,,0.00,0,weatherlink.com 1.10,2013-01-03 08:17:00,
2013-01-03 03:33:00,16.5,7.0,30.05,NNW,337,2.0,11.0,67,0.00,,,0.00,0,weatherlink.com 1.10,2013-01-03 08:33:00,
2013-01-03 03:48:00,16.2,9.0,30.05,WNW,295,2.0,6.0,72,0.00,,,0.00,0,weatherlink.com 1.10,2013-01-03 08:48:00,
2013-01-03 04:03:00,16.1,9.0,30.05,NNW,345,0.0,6.0,73,0.00,,,0.00,0,weatherlink.com 1.10,2013-01-03 09:03:00,
2013-01-03 04:18:00,16.0,8.0,30.05,WNW,286,7.0,9.0,72,0.00,,,0.00,0,weatherlink.com 1.10,2013-01-03 09:18:00,
2013-01-03 04:33:00,15.9,9.0,30.05,West,268,4.0,9.0,74,0.00,,,0.00,0,weatherlink.com 1.10,2013-01-03 09:33:00,
2013-01-03 04:48:00,15.9,9.0,30.05,NW,315,3.0,7.0,75,0.00,,,0.00,0,weatherlink.com 1.10,2013-01-03 09:48:00,
2013-01-03 05:03:00,15.8,10.0,30.04,West,279,5.0,8.0,76,0.00,,,0.00,0,weatherlink.com 1.10,2013-01-03 10:03:00,
2013-01-03 05:18:00,15.7,10.0,30.04,WNW,287,0.0,9.0,77,0.00,,,0.00,0,weatherlink.com 1.10,2013-01-03 10:18:00,
2013-01-03 05:33:00,15.8,10.0,30.05,NW,314,2.0,8.0,77,0.00,,,0.00,0,weatherlink.com 1.10,2013-01-03 10:33:00,
2013-01-03 05:48:00,15.8,10.0,30.06,WNW,290,3.0,9.0,78,0.00,,,0.00,0,weatherlink.com 1.10,2013-01-03 10:48:00,
2013-01-03 06:03:00,15.6,10.0,30.06,WNW,296,3.0,11.0,78,0.00,,,0.00,0,weatherlink.com 1.10,2013-01-03 11:03:00,
2013-01-03 06:18:00,15.2,10.0,30.06,NW,313,3.0,8.0,79,0.00,,,0.00,0,weatherlink.com 1.10,2013-01-03 11:18:00,
2013-01-03 06:33:00,15.0,10.0,30.06,WNW,289,4.0,6.0,79,0.00,,,0.00,0,weatherlink.com 1.10,2013-01-03 11:33:00,
2013-01-03 06:48:00,14.8,10.0,30.07,West,281,3.0,6.0,80,0.00,,,0.00,0,weatherlink.com 1.10,2013-01-03 11:48:00,
2013-01-03 07:03:00,14.4,9.0,30.07,West,281,2.0,8.0,80,0.00,,,0.00,0,weatherlink.com 1.10,2013-01-03 12:03:00,
2013-01-03 07:18:00,14.0,9.0,30.07,NW,320,0.0,7.0,80,0.00,,,0.00,7,weatherlink.com 1.10,2013-01-03 12:18:00,
2013-01-03 07:33:00,13.7,9.0,30.07,West,274,2.0,8.0,80,0.00,,,0.00,14,weatherlink.com 1.10,2013-01-03 12:33:00,
2013-01-03 07:48:00,13.6,9.0,30.07,WNW,303,0.0,7.0,81,0.00,,,0.00,19,weatherlink.com 1.10,2013-01-03 12:48:00,
2013-01-03 08:03:00,13.6,9.0,30.08,WNW,295,6.0,8.0,81,0.00,,,0.00,28,weatherlink.com 1.10,2013-01-03 13:03:00,
2013-01-03 08:18:00,13.8,9.0,30.08,West,272,4.0,6.0,81,0.00,,,0.00,67,weatherlink.com 1.10,2013-01-03 13:18:00,
2013-01-03 08:33:00,14.8,10.0,30.08,NNW,329,2.0,8.0,81,0.00,,,0.00,134,weatherlink.com 1.10,2013-01-03 13:33:00,
2013-01-03 08:48:00,14.8,10.0,30.09,SSW,212,0.0,11.0,80,0.00,,,0.00,135,weatherlink.com 1.10,2013-01-03 13:48:00,
2013-01-03 09:03:00,14.2,8.0,30.09,WSW,252,0.0,5.0,75,0.00,,,0.00,67,weatherlink.com 1.10,2013-01-03 14:03:00,
2013-01-03 09:18:00,14.4,9.0,30.09,SSW,212,2.0,3.0,78,0.00,,,0.00,160,weatherlink.com 1.10,2013-01-03 14:18:00,
2013-01-03 09:33:00,14.7,10.0,30.08,NW,312,5.0,8.0,80,0.00,,,0.00,153,weatherlink.com 1.10,2013-01-03 14:33:00,
2013-01-03 09:48:00,15.2,10.0,30.08,NW,316,2.0,8.0,81,0.00,,,0.00,269,weatherlink.com 1.10,2013-01-03 14:48:00,
2013-01-03 10:03:00,15.9,11.0,30.08,WNW,301,3.0,7.0,81,0.00,,,0.00,320,weatherlink.com 1.10,2013-01-03 15:03:00,
2013-01-03 10:18:00,16.4,11.0,30.08,West,274,3.0,8.0,80,0.00,,,0.00,362,weatherlink.com 1.10,2013-01-03 15:18:00,
2013-01-03 10:33:00,17.0,12.0,30.07,NW,308,4.0,10.0,81,0.00,,,0.00,376,weatherlink.com 1.10,2013-01-03 15:33:00,
2013-01-03 10:48:00,18.0,13.0,30.06,NNW,343,2.0,7.0,81,0.00,,,0.00,425,weatherlink.com 1.10,2013-01-03 15:48:00,
2013-01-03 11:03:00,18.5,13.0,30.05,WNW,282,5.0,9.0,80,0.00,,,0.00,462,weatherlink.com 1.10,2013-01-03 16:03:00,
2013-01-03 11:18:00,19.0,14.0,30.04,NW,311,2.0,7.0,79,0.00,,,0.00,469,weatherlink.com 1.10,2013-01-03 16:18:00,
2013-01-03 11:34:00,19.7,14.0,30.03,NW,322,1.0,5.0,79,0.00,,,0.00,471,weatherlink.com 1.10,2013-01-03 16:34:00,
2013-01-03 11:49:00,20.1,14.0,30.03,West,262,1.0,6.0,78,0.00,,,0.00,480,weatherlink.com 1.10,2013-01-03 16:49:00,
2013-01-03 12:04:00,20.5,14.0,30.02,North,8,4.0,8.0,76,0.00,,,0.00,482,weatherlink.com 1.10,2013-01-03 17:04:00,
2013-01-03 12:19:00,20.7,14.0,30.03,NNW,330,2.0,6.0,75,0.00,,,0.00,478,weatherlink.com 1.10,2013-01-03 17:19:00,
2013-01-03 12:34:00,20.5,13.0,30.02,WNW,298,3.0,7.0,73,0.00,,,0.00,464,weatherlink.com 1.10,2013-01-03 17:34:00,
2013-01-03 12:49:00,20.6,10.0,30.01,West,272,3.0,5.0,63,0.00,,,0.00,448,weatherlink.com 1.10,2013-01-03 17:49:00,
2013-01-03 13:04:00,20.8,9.0,30.01,WNW,293,1.0,7.0,60,0.00,,,0.00,434,weatherlink.com 1.10,2013-01-03 18:04:00,
2013-01-03 13:19:00,21.3,9.0,30.00,WNW,297,1.0,5.0,59,0.00,,,0.00,415,weatherlink.com 1.10,2013-01-03 18:19:00,
2013-01-03 13:34:00,22.0,9.0,29.99,WNW,300,5.0,6.0,58,0.00,,,0.00,392,weatherlink.com 1.10,2013-01-03 18:34:00,
2013-01-03 13:49:00,22.1,9.0,29.99,WNW,296,0.0,4.0,57,0.00,,,0.00,39,weatherlink.com 1.10,2013-01-03 18:49:00,
2013-01-03 14:04:00,22.7,9.0,29.99,NNW,331,1.0,7.0,56,0.00,,,0.00,178,weatherlink.com 1.10,2013-01-03 19:04:00,
2013-01-03 15:04:00,22.8,9.0,29.99,West,262,1.0,4.0,55,0.00,,,0.00,37,weatherlink.com 1.10,2013-01-03 20:04:00,
2013-01-03 15:19:00,23.3,9.0,29.99,WSW,252,1.0,2.0,55,0.00,,,0.00,47,weatherlink.com 1.10,2013-01-03 20:19:00,
2013-01-03 15:34:00,23.2,8.0,29.99,WNW,301,0.0,5.0,53,0.00,,,0.00,26,weatherlink.com 1.10,2013-01-03 20:34:00,
2013-01-03 15:49:00,23.2,9.0,29.99,WNW,283,0.0,3.0,54,0.00,,,0.00,18,weatherlink.com 1.10,2013-01-03 20:49:00,
2013-01-03 16:04:00,23.0,8.0,29.99,West,281,1.0,3.0,54,0.00,,,0.00,12,weatherlink.com 1.10,2013-01-03 21:04:00,
2013-01-03 16:19:00,22.5,8.0,29.99,WSW,247,0.0,4.0,53,0.00,,,0.00,5,weatherlink.com 1.10,2013-01-03 21:19:00,
2013-01-03 16:34:00,22.1,8.0,29.99,WSW,247,0.0,1.0,55,0.00,,,0.00,0,weatherlink.com 1.10,2013-01-03 21:34:00,
2013-01-03 16:49:00,21.6,8.0,29.99,SW,229,0.0,1.0,57,0.00,,,0.00,0,weatherlink.com 1.10,2013-01-03 21:49:00,
2013-01-03 17:04:00,21.1,9.0,29.99,SW,229,0.0,1.0,59,0.00,,,0.00,0,weatherlink.com 1.10,2013-01-03 22:04:00,
2013-01-03 17:19:00,20.6,9.0,29.99,SW,229,0.0,1.0,60,0.00,,,0.00,0,weatherlink.com 1.10,2013-01-03 22:19:00,
2013-01-03 17:34:00,20.3,8.0,29.99,SW,233,0.0,1.0,58,0.00,,,0.00,0,weatherlink.com 1.10,2013-01-03 22:34:00,
2013-01-03 17:49:00,20.5,7.0,29.99,WSW,238,0.0,2.0,57,0.00,,,0.00,0,weatherlink.com 1.10,2013-01-03 22:49:00,
2013-01-03 18:19:00,20.8,7.0,29.99,SW,216,1.0,3.0,55,0.00,,,0.00,0,weatherlink.com 1.10,2013-01-03 23:19:00,
2013-01-03 18:34:00,21.6,6.0,30.00,WNW,282,2.0,7.0,51,0.00,,,0.00,0,weatherlink.com 1.10,2013-01-03 23:34:00,
2013-01-03 18:49:00,21.6,8.0,30.00,SSW,211,0.0,5.0,55,0.00,,,0.00,0,weatherlink.com 1.10,2013-01-03 23:49:00,
2013-01-03 19:04:00,21.8,7.0,30.01,West,281,2.0,7.0,54,0.00,,,0.00,0,weatherlink.com 1.10,2013-01-04 00:04:00,
2013-01-03 19:19:00,22.4,7.0,30.01,NW,304,4.0,10.0,52,0.00,,,0.00,0,weatherlink.com 1.10,2013-01-04 00:19:00,
2013-01-03 19:34:00,22.7,7.0,30.02,WSW,252,1.0,6.0,51,0.00,,,0.00,0,weatherlink.com 1.10,2013-01-04 00:34:00,
2013-01-03 19:49:00,22.4,7.0,30.01,West,279,0.0,6.0,52,0.00,,,0.00,0,weatherlink.com 1.10,2013-01-04 00:49:00,
2013-01-03 20:04:00,22.4,6.0,30.01,South,185,0.0,5.0,50,0.00,,,0.00,0,weatherlink.com 1.10,2013-01-04 01:04:00,
2013-01-03 20:19:00,22.7,9.0,30.01,WSW,252,0.0,6.0,55,0.00,,,0.00,0,weatherlink.com 1.10,2013-01-04 01:19:00,
2013-01-03 20:34:00,22.9,10.0,30.01,West,272,1.0,5.0,57,0.00,,,0.00,0,weatherlink.com 1.10,2013-01-04 01:34:00,
2013-01-03 20:49:00,23.1,10.0,30.02,NW,313,5.0,7.0,58,0.00,,,0.00,0,weatherlink.com 1.10,2013-01-04 01:49:00,
2013-01-03 21:04:00,23.3,11.0,30.01,WNW,289,0.0,5.0,60,0.00,,,0.00,0,weatherlink.com 1.10,2013-01-04 02:04:00,
2013-01-03 21:19:00,23.4,12.0,30.01,West,268,1.0,4.0,61,0.00,,,0.00,0,weatherlink.com 1.10,2013-01-04 02:19:00,
2013-01-03 21:34:00,23.4,12.0,30.02,NNW,344,0.0,3.0,63,0.00,,,0.00,0,weatherlink.com 1.10,2013-01-04 02:34:00,
2013-01-03 21:49:00,23.7,13.0,30.02,West,281,0.0,4.0,65,0.00,,,0.00,0,weatherlink.com 1.10,2013-01-04 02:49:00,
2013-01-03 22:04:00,24.1,14.0,30.02,WNW,297,1.0,6.0,66,0.00,,,0.00,0,weatherlink.com 1.10,2013-01-04 03:04:00,
2013-01-03 22:19:00,23.8,15.0,30.02,WNW,287,0.0,6.0,68,0.00,,,0.00,0,weatherlink.com 1.10,2013-01-04 03:19:00,
2013-01-03 22:34:00,23.6,15.0,30.02,WNW,289,1.0,4.0,69,0.00,,,0.00,0,weatherlink.com 1.10,2013-01-04 03:34:00,
2013-01-03 22:49:00,23.3,15.0,30.01,WNW,286,0.0,3.0,70,0.00,,,0.00,0,weatherlink.com 1.10,2013-01-04 03:49:00,
2013-01-03 23:04:00,23.1,15.0,30.00,West,270,0.0,5.0,71,0.00,,,0.00,0,weatherlink.com 1.10,2013-01-04 04:04:00,
2013-01-03 23:19:00,22.7,15.0,30.00,West,270,0.0,2.0,72,0.00,,,0.00,0,weatherlink.com 1.10,2013-01-04 04:19:00,
2013-01-03 23:34:00,22.4,15.0,30.00,West,270,0.0,2.0,72,0.00,,,0.00,0,weatherlink.com 1.10,2013-01-04 04:34:00,
2013-01-03 23:49:00,22.0,14.0,29.99,West,270,0.0,0.0,72,0.00,,,0.00,0,weatherlink.com 1.10,2013-01-04 04:49:00,